createdAt,value
2022-08-05T00:02:52.595Z,25.64
2022-08-05T00:08:00.863Z,25.63
2022-08-05T00:13:04.699Z,25.60
2022-08-05T00:18:08.034Z,25.56
2022-08-05T00:23:13.017Z,25.59
2022-08-05T00:28:21.117Z,25.55
2022-08-05T00:34:56.659Z,25.55
2022-08-05T00:38:59.489Z,25.52
2022-08-05T00:44:03.826Z,25.54
2022-08-05T00:49:08.677Z,25.53
2022-08-05T00:54:18.216Z,25.50
2022-08-05T00:59:21.865Z,25.48
2022-08-05T01:04:27.028Z,25.48
2022-08-05T01:09:33.729Z,25.48
2022-08-05T01:14:48.318Z,25.47
2022-08-05T01:20:01.118Z,25.46
2022-08-05T01:25:40.976Z,25.45
2022-08-05T01:31:07.997Z,25.44
2022-08-05T01:36:16.188Z,25.43
2022-08-05T01:41:25.490Z,25.44
2022-08-05T01:46:41.364Z,25.43
2022-08-05T01:51:51.791Z,25.42
2022-08-05T01:58:29.946Z,25.40
2022-08-05T02:02:28.528Z,25.37
2022-08-05T02:07:38.166Z,25.38
2022-08-05T02:13:02.706Z,25.35
2022-08-05T02:18:33.296Z,25.33
2022-08-05T02:23:41.557Z,25.33
2022-08-05T02:28:48.920Z,25.30
2022-08-05T02:34:15.047Z,25.31
2022-08-05T02:39:21.736Z,25.29
2022-08-05T02:44:28.068Z,25.30
2022-08-05T02:49:35.916Z,25.27
2022-08-05T02:54:52.176Z,25.27
2022-08-05T02:59:56.190Z,25.21
2022-08-05T03:05:01.353Z,25.18
2022-08-05T03:10:07.360Z,25.17
2022-08-05T03:15:12.299Z,25.18
2022-08-05T03:20:16.158Z,25.18
2022-08-05T03:25:33.533Z,25.17
2022-08-05T03:30:46.643Z,25.17
2022-08-05T03:35:51.813Z,25.18
2022-08-05T03:40:55.360Z,25.21
2022-08-05T03:46:01.281Z,25.26
2022-08-05T03:52:38.697Z,25.31
2022-08-05T03:56:46.565Z,25.37
2022-08-05T04:01:53.937Z,25.44
2022-08-05T04:07:03.304Z,25.52
2022-08-05T04:12:23.870Z,25.65
2022-08-05T04:17:36.389Z,25.72
2022-08-05T04:22:52.858Z,25.84
2022-08-05T04:27:57.298Z,25.90
2022-08-05T04:33:02.500Z,25.99
2022-08-05T04:38:11.660Z,26.07
2022-08-05T04:43:21.962Z,26.13
2022-08-05T04:48:28.458Z,26.23
2022-08-05T04:53:33.354Z,26.38
2022-08-05T04:58:39.089Z,26.53
2022-08-05T05:03:45.306Z,26.66
2022-08-05T05:08:50.049Z,26.76
2022-08-05T05:13:55.277Z,26.94
2022-08-05T05:19:18.619Z,27.08
2022-08-05T05:24:22.993Z,27.22
2022-08-05T05:30:04.209Z,27.45
2022-08-05T05:35:09.590Z,27.57
2022-08-05T05:40:15.984Z,27.81
2022-08-05T05:45:20.530Z,28.08
2022-08-05T05:50:24.270Z,28.16
2022-08-05T05:55:52.511Z,28.26
2022-08-05T06:00:52.573Z,28.50
2022-08-05T06:05:55.876Z,28.73
2022-08-05T06:11:00.560Z,28.99
2022-08-05T06:16:31.503Z,29.21
2022-08-05T06:21:36.799Z,30.70
2022-08-05T06:26:51.021Z,32.83
2022-08-05T06:31:55.039Z,34.18
2022-08-05T06:37:08.347Z,33.85
2022-08-05T06:42:11.867Z,33.50
2022-08-05T06:48:11.699Z,34.43
2022-08-05T06:52:40.467Z,34.91
2022-08-05T06:58:03.305Z,34.51
2022-08-05T07:03:11.981Z,34.12
2022-08-05T07:08:15.683Z,34.20
2022-08-05T07:13:57.089Z,33.90
2022-08-05T07:18:47.769Z,33.19
2022-08-05T07:23:52.241Z,33.63
2022-08-05T07:28:55.875Z,33.29
2022-08-05T07:33:59.938Z,32.85
2022-08-05T07:39:06.641Z,33.07
2022-08-05T07:44:27.981Z,32.49
2022-08-05T07:49:32.337Z,32.48
2022-08-05T07:54:49.282Z,32.52
2022-08-05T07:59:53.643Z,32.23
2022-08-05T08:04:57.526Z,32.40
2022-08-05T08:10:02.614Z,32.61
2022-08-05T08:15:13.912Z,32.56
2022-08-05T08:20:44.657Z,32.49
2022-08-05T08:25:59.774Z,32.63
2022-08-05T08:31:08.029Z,32.61
2022-08-05T08:36:38.404Z,32.80
2022-08-05T08:41:52.275Z,32.72
2022-08-05T08:47:03.933Z,32.28
2022-08-05T08:52:30.728Z,32.29
2022-08-05T08:57:42.327Z,32.02
2022-08-05T09:03:01.150Z,31.85
2022-08-05T09:08:04.785Z,31.65
2022-08-05T09:13:08.324Z,31.75
2022-08-05T09:18:13.397Z,31.95
2022-08-05T09:23:21.533Z,31.99
2022-08-05T09:28:31.469Z,32.02
2022-08-05T09:33:49.256Z,32.07
2022-08-05T09:39:18.056Z,32.10
2022-08-05T09:44:35.943Z,32.09
2022-08-05T09:50:01.408Z,32.06
2022-08-05T09:55:56.964Z,32.09
2022-08-05T10:00:31.684Z,32.03
2022-08-05T10:05:35.588Z,31.99
2022-08-05T10:10:44.458Z,31.87
2022-08-05T10:15:48.675Z,31.63
2022-08-05T10:20:56.379Z,31.62
2022-08-05T10:26:02.261Z,31.66
2022-08-05T10:32:54.721Z,31.65
2022-08-05T10:36:38.241Z,31.57
2022-08-05T10:42:11.437Z,31.56
2022-08-05T10:47:26.530Z,31.58
2022-08-05T10:52:40.068Z,31.70
2022-08-05T10:58:15.620Z,31.63
2022-08-05T11:03:23.063Z,31.54
2022-08-05T11:08:37.951Z,31.50
2022-08-05T11:13:54.721Z,31.38
2022-08-05T11:20:17.095Z,31.32
2022-08-05T11:26:06.222Z,31.16
2022-08-05T11:30:58.266Z,31.09
2022-08-05T11:36:07.980Z,31.07
2022-08-05T11:41:54.347Z,31.00
2022-08-05T11:47:09.597Z,30.77
2022-08-05T11:52:29.244Z,30.67
2022-08-05T11:58:08.639Z,30.59
2022-08-05T12:03:28.695Z,30.60
2022-08-05T12:08:33.898Z,30.54
2022-08-05T12:13:48.478Z,30.39
2022-08-05T12:18:53.688Z,30.29
2022-08-05T12:24:08.441Z,30.24
2022-08-05T12:29:22.807Z,30.02
2022-08-05T12:34:29.766Z,29.94
2022-08-05T12:39:38.640Z,29.95
2022-08-05T12:44:43.242Z,29.93
2022-08-05T12:50:04.782Z,29.93
2022-08-05T12:55:32.750Z,29.93
2022-08-05T13:02:04.870Z,29.86
2022-08-05T13:06:08.232Z,29.91
2022-08-05T13:11:18.322Z,29.77
2022-08-05T13:16:47.523Z,29.66
2022-08-05T13:21:55.944Z,29.71
2022-08-05T13:27:02.838Z,29.70
2022-08-05T13:32:10.185Z,29.55
2022-08-05T13:37:13.787Z,29.60
2022-08-05T13:42:23.989Z,29.60
2022-08-05T13:47:35.860Z,29.61
2022-08-05T13:52:51.669Z,29.57
2022-08-05T13:57:55.461Z,29.41
2022-08-05T14:03:01.063Z,29.26
2022-08-05T14:08:20.262Z,29.15
2022-08-05T14:13:24.269Z,29.08
2022-08-05T14:18:29.792Z,29.08
2022-08-05T14:23:37.283Z,29.08
2022-08-05T14:28:51.954Z,29.05
2022-08-05T14:33:59.513Z,28.96
2022-08-05T14:39:04.661Z,28.89
2022-08-05T14:44:14.440Z,28.86
2022-08-05T14:49:23.711Z,28.86
2022-08-05T14:54:52.802Z,28.69
2022-08-05T14:59:56.978Z,28.59
2022-08-05T15:05:02.355Z,28.49
2022-08-05T15:10:16.563Z,28.43
2022-08-05T15:15:54.943Z,28.39
2022-08-05T15:20:43.579Z,28.26
2022-08-05T15:25:52.692Z,28.17
2022-08-05T15:30:57.379Z,28.10
2022-08-05T15:36:03.667Z,28.03
2022-08-05T15:41:20.730Z,27.91
2022-08-05T15:46:27.129Z,27.81
2022-08-05T15:52:12.568Z,27.73
2022-08-05T15:56:54.548Z,27.63
2022-08-05T16:01:58.433Z,27.55
2022-08-05T16:07:04.725Z,27.48
2022-08-05T16:12:09.693Z,27.37
2022-08-05T16:17:16.542Z,27.31
2022-08-05T16:22:27.593Z,27.23
2022-08-05T16:27:59.721Z,27.15
2022-08-05T16:33:00.599Z,27.07
2022-08-05T16:38:24.406Z,27.01
2022-08-05T16:43:30.038Z,26.96
2022-08-05T16:48:35.371Z,26.89
2022-08-05T16:54:04.927Z,26.83
2022-08-05T16:59:08.683Z,26.77
2022-08-05T17:04:12.061Z,26.72
2022-08-05T17:09:18.784Z,26.69
2022-08-05T17:14:37.496Z,26.67
2022-08-05T17:19:41.928Z,26.63
2022-08-05T17:24:57.481Z,26.62
2022-08-05T17:30:04.586Z,26.58
2022-08-05T17:35:20.575Z,26.55
2022-08-05T17:40:24.517Z,26.52
2022-08-05T17:45:38.252Z,26.48
2022-08-05T17:50:42.313Z,26.46
2022-08-05T17:55:45.993Z,26.44
2022-08-05T18:00:50.692Z,26.43
2022-08-05T18:05:54.601Z,26.42
2022-08-05T18:10:57.909Z,26.42
2022-08-05T18:16:01.798Z,26.40
2022-08-05T18:21:05.932Z,26.37
2022-08-05T18:26:21.964Z,26.36
2022-08-05T18:31:33.072Z,26.32
2022-08-05T18:36:38.835Z,26.32
2022-08-05T18:41:55.434Z,26.32
2022-08-05T18:47:05.056Z,26.30
2022-08-05T18:52:11.038Z,26.29
2022-08-05T18:57:15.698Z,26.27
2022-08-05T19:02:28.198Z,26.25
2022-08-05T19:07:46.349Z,26.25
2022-08-05T19:12:50.507Z,26.22
2022-08-05T19:18:08.596Z,26.20
2022-08-05T19:24:03.622Z,26.20
2022-08-05T19:28:41.985Z,26.23
2022-08-05T19:33:48.751Z,26.25
2022-08-05T19:39:01.843Z,26.24
2022-08-05T19:44:13.459Z,26.24
2022-08-05T19:49:18.238Z,26.24
2022-08-05T19:54:29.535Z,26.28
2022-08-05T20:00:00.902Z,26.30
2022-08-05T20:05:00.129Z,26.25
2022-08-05T20:10:13.507Z,26.19
2022-08-05T20:15:48.124Z,26.18
2022-08-05T20:20:45.739Z,26.14
2022-08-05T20:25:52.310Z,26.11
2022-08-05T20:30:55.853Z,26.10
2022-08-05T20:36:00.178Z,26.11
2022-08-05T20:41:08.095Z,26.10
2022-08-05T20:46:12.420Z,26.06
2022-08-05T20:51:22.448Z,26.04
2022-08-05T20:56:29.126Z,26.02
2022-08-05T21:01:38.172Z,25.98
2022-08-05T21:06:45.253Z,25.95
2022-08-05T21:12:07.388Z,25.93
2022-08-05T21:17:13.537Z,25.89
2022-08-05T21:22:17.590Z,25.87
2022-08-05T21:27:25.217Z,25.88
2022-08-05T21:32:30.519Z,25.84
2022-08-05T21:37:35.134Z,25.84
2022-08-05T21:42:45.754Z,25.85
2022-08-05T21:47:57.052Z,25.90
2022-08-05T21:53:08.469Z,25.92
2022-08-05T21:58:30.709Z,25.86
2022-08-05T22:03:48.560Z,25.84
2022-08-05T22:08:52.879Z,25.83
2022-08-05T22:14:33.884Z,25.83
2022-08-05T22:20:00.696Z,25.83
2022-08-05T22:24:52.512Z,25.80
2022-08-05T22:29:58.151Z,25.78
2022-08-05T22:35:01.466Z,25.75
2022-08-05T22:40:07.232Z,25.73
2022-08-05T22:45:11.229Z,25.71
2022-08-05T22:50:18.526Z,25.71
2022-08-05T22:55:26.707Z,25.68
2022-08-05T23:00:40.883Z,25.67
2022-08-05T23:05:44.550Z,25.66
2022-08-05T23:10:50.902Z,25.66
2022-08-05T23:15:59.599Z,25.64
2022-08-05T23:21:02.952Z,25.65
2022-08-05T23:26:06.724Z,25.65
2022-08-05T23:31:17.051Z,25.65
2022-08-05T23:36:28.231Z,25.67
2022-08-05T23:41:34.269Z,25.66
2022-08-05T23:46:40.779Z,25.71
2022-08-05T23:51:45.948Z,25.71
2022-08-05T23:57:03.460Z,25.68
